createdAt,value
2023-02-15T00:02:42.724Z,101812.31
2023-02-15T00:07:47.299Z,101815.00
2023-02-15T00:12:50.385Z,101815.22
2023-02-15T00:17:53.669Z,101805.84
2023-02-15T00:22:58.193Z,101801.63
2023-02-15T00:28:02.507Z,101800.75
2023-02-15T00:33:05.700Z,101794.75
2023-02-15T00:38:10.392Z,101793.09
2023-02-15T00:43:13.498Z,101782.75
2023-02-15T00:48:16.754Z,101774.31
2023-02-15T00:53:21.949Z,101778.63
2023-02-15T00:58:25.528Z,101776.94
2023-02-15T01:03:28.741Z,101782.19
2023-02-15T01:08:33.570Z,101782.31
2023-02-15T01:13:38.168Z,101784.16
2023-02-15T01:18:41.408Z,101785.13
2023-02-15T01:23:47.192Z,101780.06
2023-02-15T01:28:50.472Z,101768.09
2023-02-15T01:33:53.569Z,101768.97
2023-02-15T01:38:58.248Z,101762.09
2023-02-15T01:44:03.208Z,101745.78
2023-02-15T01:49:13.045Z,101747.47
2023-02-15T01:54:25.791Z,101756.16
2023-02-15T01:59:30.647Z,101742.44
2023-02-15T02:04:41.225Z,101739.06
2023-02-15T02:09:47.181Z,101733.09
2023-02-15T02:14:53.530Z,101732.31
2023-02-15T02:20:29.180Z,101735.72
2023-02-15T02:26:00.695Z,101723.75
2023-02-15T02:31:41.541Z,101723.03
2023-02-15T02:36:55.189Z,101722.38
2023-02-15T02:42:03.294Z,101737.03
2023-02-15T02:47:11.470Z,101719.06
2023-02-15T02:52:38.673Z,101721.53
2023-02-15T02:57:49.032Z,101712.19
2023-02-15T03:02:59.366Z,101701.00
2023-02-15T03:08:07.227Z,101695.09
2023-02-15T03:13:11.439Z,101684.75
2023-02-15T03:18:15.142Z,101676.22
2023-02-15T03:23:24.188Z,101683.13
2023-02-15T03:28:33.287Z,101679.69
2023-02-15T03:33:38.598Z,101681.44
2023-02-15T03:38:50.304Z,101679.75
2023-02-15T03:43:56.624Z,101671.16
2023-02-15T03:49:05.100Z,101665.16
2023-02-15T03:54:13.565Z,101656.56
2023-02-15T03:59:34.199Z,101660.06
2023-02-15T04:04:39.118Z,101661.84
2023-02-15T04:10:01.600Z,101668.78
2023-02-15T04:15:22.879Z,101664.72
2023-02-15T04:20:43.614Z,101677.72
2023-02-15T04:25:48.174Z,101671.81
2023-02-15T04:30:51.420Z,101677.16
2023-02-15T04:35:54.653Z,101666.84
2023-02-15T04:40:59.148Z,101660.09
2023-02-15T04:46:02.594Z,101658.44
2023-02-15T04:51:08.568Z,101643.84
2023-02-15T04:56:13.295Z,101648.22
2023-02-15T05:01:16.778Z,101635.34
2023-02-15T05:06:20.085Z,101630.19
2023-02-15T05:11:24.636Z,101619.13
2023-02-15T05:16:28.813Z,101625.19
2023-02-15T05:21:32.369Z,101621.84
2023-02-15T05:26:54.034Z,101623.66
2023-02-15T05:31:57.541Z,101623.72
2023-02-15T05:37:00.728Z,101624.63
2023-02-15T05:42:05.928Z,101617.78
2023-02-15T05:47:09.228Z,101608.38
2023-02-15T05:52:13.393Z,101609.34
2023-02-15T05:57:17.996Z,101611.91
2023-02-15T06:02:21.277Z,101614.56
2023-02-15T06:07:24.441Z,101612.81
2023-02-15T06:12:29.055Z,101618.81
2023-02-15T06:17:32.392Z,101623.16
2023-02-15T06:22:35.452Z,101622.28
2023-02-15T06:27:42.856Z,101617.91
2023-02-15T06:32:46.511Z,101621.28
2023-02-15T06:37:50.232Z,101619.56
2023-02-15T06:42:55.901Z,101611.72
2023-02-15T06:48:27.017Z,101614.28
2023-02-15T06:53:30.680Z,101620.28
2023-02-15T06:58:37.292Z,101622.72
2023-02-15T07:03:41.316Z,101612.28
2023-02-15T07:08:45.428Z,101613.97
2023-02-15T07:13:50.283Z,101616.53
2023-02-15T07:18:53.703Z,101608.59
2023-02-15T07:23:58.841Z,101599.84
2023-02-15T07:29:06.696Z,101598.81
2023-02-15T07:34:10.089Z,101592.59
2023-02-15T07:39:13.831Z,101596.56
2023-02-15T07:44:18.823Z,101581.53
2023-02-15T07:49:22.908Z,101585.50
2023-02-15T07:54:26.461Z,101565.59
2023-02-15T07:59:32.080Z,101558.44
2023-02-15T08:04:35.804Z,101547.06
2023-02-15T08:09:44.018Z,101557.81
2023-02-15T08:14:56.205Z,101546.22
2023-02-15T08:20:02.319Z,101549.22
2023-02-15T08:25:07.368Z,101539.66
2023-02-15T08:30:15.384Z,101533.00
2023-02-15T08:35:19.128Z,101529.31
2023-02-15T08:40:22.527Z,101524.06
2023-02-15T08:45:27.447Z,101527.06
2023-02-15T08:50:30.689Z,101515.41
2023-02-15T08:55:34.012Z,101514.13
2023-02-15T09:00:38.565Z,101507.41
2023-02-15T09:05:41.994Z,101505.94
2023-02-15T09:10:45.124Z,101508.88
2023-02-15T09:15:49.795Z,101517.88
2023-02-15T09:20:52.929Z,101514.72
2023-02-15T09:25:56.224Z,101499.31
2023-02-15T09:31:07.103Z,101497.47
2023-02-15T09:36:18.263Z,101503.19
2023-02-15T09:41:35.263Z,101496.16
2023-02-15T09:47:12.573Z,101496.22
2023-02-15T09:52:30.068Z,101505.97
2023-02-15T09:57:46.526Z,101499.41
2023-02-15T10:03:14.155Z,101498.38
2023-02-15T10:08:43.005Z,101494.34
2023-02-15T10:13:52.783Z,101492.50
2023-02-15T10:19:07.060Z,101492.50
2023-02-15T10:24:32.715Z,101481.16
2023-02-15T10:29:39.157Z,101475.63
2023-02-15T10:34:52.650Z,101474.28
2023-02-15T10:40:04.061Z,101459.44
2023-02-15T10:45:20.342Z,101455.16
2023-02-15T10:50:35.217Z,101450.66
2023-02-15T10:55:49.407Z,101434.84
2023-02-15T11:01:02.548Z,101440.44
2023-02-15T11:06:11.390Z,101439.59
2023-02-15T11:11:22.226Z,101435.75
2023-02-15T11:16:30.491Z,101430.44
2023-02-15T11:21:40.238Z,101423.34
2023-02-15T11:26:46.061Z,101426.84
2023-02-15T11:31:54.523Z,101420.16
2023-02-15T11:37:04.468Z,101413.41
2023-02-15T11:42:15.308Z,101404.47
2023-02-15T11:47:18.627Z,101396.31
2023-02-15T11:52:23.467Z,101405.53
2023-02-15T11:57:35.333Z,101402.81
2023-02-15T12:02:41.062Z,101391.94
2023-02-15T12:07:49.271Z,101392.25
2023-02-15T12:13:12.836Z,101389.09
2023-02-15T12:18:36.194Z,101376.00
2023-02-15T12:23:52.894Z,101367.94
2023-02-15T12:29:02.659Z,101364.75
2023-02-15T12:34:14.650Z,101361.78
2023-02-15T12:39:28.653Z,101373.84
2023-02-15T12:44:34.109Z,101362.31
2023-02-15T12:49:38.373Z,101365.66
2023-02-15T12:54:44.941Z,101347.81
2023-02-15T13:00:01.768Z,101338.69
2023-02-15T13:05:37.792Z,101343.38
2023-02-15T13:10:56.780Z,101329.53
2023-02-15T13:16:04.476Z,101328.47
2023-02-15T13:21:14.502Z,101309.06
2023-02-15T13:26:23.024Z,101315.88
2023-02-15T13:31:33.338Z,101301.09
2023-02-15T13:36:44.438Z,101304.53
2023-02-15T13:41:57.120Z,101293.63
2023-02-15T13:47:19.180Z,101301.97
2023-02-15T13:52:25.443Z,101289.81
2023-02-15T13:57:59.982Z,101290.44
2023-02-15T14:03:47.022Z,101291.75
2023-02-15T14:09:08.677Z,101301.28
2023-02-15T14:14:28.235Z,101292.81
2023-02-15T14:19:37.554Z,101283.88
2023-02-15T14:24:46.282Z,101282.81
2023-02-15T14:29:56.135Z,101282.72
2023-02-15T14:35:02.193Z,101280.19
2023-02-15T14:40:30.366Z,101281.25
2023-02-15T14:45:44.989Z,101278.03
2023-02-15T14:50:50.142Z,101272.19
2023-02-15T14:56:09.620Z,101272.41
2023-02-15T15:01:14.314Z,101275.47
2023-02-15T15:06:29.514Z,101262.00
2023-02-15T15:11:44.621Z,101257.44
2023-02-15T15:16:53.528Z,101251.81
2023-02-15T15:22:04.169Z,101247.13
2023-02-15T15:27:46.040Z,101238.31
2023-02-15T15:33:00.103Z,101242.22
2023-02-15T15:38:38.389Z,101239.72
2023-02-15T15:44:11.350Z,101230.63
2023-02-15T15:49:20.125Z,101227.63
2023-02-15T15:54:25.377Z,101228.91
2023-02-15T15:59:31.628Z,101224.00
2023-02-15T16:04:37.427Z,101214.28
2023-02-15T16:09:40.944Z,101220.16
2023-02-15T16:14:48.371Z,101227.66
2023-02-15T16:19:55.457Z,101220.28
2023-02-15T16:25:27.634Z,101209.41
2023-02-15T16:30:33.790Z,101218.13
2023-02-15T16:35:40.755Z,101219.25
2023-02-15T16:40:53.473Z,101223.84
2023-02-15T16:46:06.042Z,101223.97
2023-02-15T16:51:11.725Z,101216.00
2023-02-15T16:56:17.113Z,101214.31
2023-02-15T17:01:25.064Z,101221.44
2023-02-15T17:06:30.517Z,101216.16
2023-02-15T17:11:38.413Z,101221.47
2023-02-15T17:16:50.167Z,101224.19
2023-02-15T17:21:57.823Z,101242.31
2023-02-15T17:27:04.792Z,101230.13
2023-02-15T17:32:17.330Z,101228.19
2023-02-15T17:37:31.168Z,101215.63
2023-02-15T17:42:34.570Z,101220.00
2023-02-15T17:47:37.964Z,101217.50
2023-02-15T17:52:42.844Z,101223.09
2023-02-15T17:57:46.132Z,101227.66
2023-02-15T18:03:06.731Z,101236.06
2023-02-15T18:08:32.156Z,101228.78
2023-02-15T18:13:35.372Z,101226.44
2023-02-15T18:18:38.719Z,101228.97
2023-02-15T18:23:43.578Z,101230.72
2023-02-15T18:28:50.213Z,101231.75
2023-02-15T18:33:56.084Z,101232.59
2023-02-15T18:39:08.438Z,101237.91
2023-02-15T18:44:16.557Z,101228.75
2023-02-15T18:49:20.297Z,101235.09
2023-02-15T18:54:26.973Z,101226.53
2023-02-15T18:59:31.289Z,101229.31
2023-02-15T19:04:35.141Z,101225.31
2023-02-15T19:09:48.558Z,101227.38
2023-02-15T19:14:53.144Z,101218.97
2023-02-15T19:19:56.512Z,101202.78
2023-02-15T19:25:03.818Z,101208.16
2023-02-15T19:30:16.722Z,101209.09
2023-02-15T19:35:23.266Z,101205.75
2023-02-15T19:40:30.357Z,101196.41
2023-02-15T19:45:33.763Z,101196.59
2023-02-15T19:50:37.009Z,101197.69
2023-02-15T19:55:42.175Z,101194.41
2023-02-15T20:00:45.479Z,101192.91
2023-02-15T20:05:49.414Z,101197.38
2023-02-15T20:10:54.232Z,101202.97
2023-02-15T20:15:58.032Z,101193.81
2023-02-15T20:21:06.303Z,101215.06
2023-02-15T20:26:18.457Z,101205.94
2023-02-15T20:31:21.972Z,101197.66
2023-02-15T20:36:29.588Z,101196.22
2023-02-15T20:41:37.535Z,101188.84
2023-02-15T20:46:41.138Z,101189.38
2023-02-15T20:51:51.455Z,101188.13
2023-02-15T20:56:56.580Z,101193.66
2023-02-15T21:02:02.362Z,101193.16
2023-02-15T21:07:06.369Z,101185.94
2023-02-15T21:12:14.815Z,101183.75
2023-02-15T21:17:18.943Z,101188.63
2023-02-15T21:22:23.208Z,101195.84
2023-02-15T21:27:27.945Z,101201.38
2023-02-15T21:32:31.275Z,101204.38
2023-02-15T21:37:38.967Z,101206.47
2023-02-15T21:43:00.721Z,101205.25
2023-02-15T21:48:04.073Z,101204.75
2023-02-15T21:53:11.279Z,101198.13
2023-02-15T21:58:21.401Z,101207.13
2023-02-15T22:03:34.533Z,101197.16
2023-02-15T22:08:37.955Z,101194.03
2023-02-15T22:13:43.292Z,101202.97
2023-02-15T22:18:48.707Z,101212.84
2023-02-15T22:23:52.651Z,101209.00
2023-02-15T22:28:58.288Z,101203.28
2023-02-15T22:34:09.486Z,101202.84
2023-02-15T22:39:13.762Z,101195.19
2023-02-15T22:44:26.844Z,101203.97
2023-02-15T22:49:30.781Z,101213.75
2023-02-15T22:54:34.232Z,101213.06
2023-02-15T22:59:39.011Z,101208.94
2023-02-15T23:04:42.836Z,101206.53
2023-02-15T23:09:46.279Z,101202.31
2023-02-15T23:14:51.306Z,101196.59
2023-02-15T23:19:54.505Z,101203.69
2023-02-15T23:24:57.632Z,101203.81
2023-02-15T23:30:03.452Z,101199.69
2023-02-15T23:35:15.213Z,101199.84
2023-02-15T23:40:38.627Z,101209.66
2023-02-15T23:45:43.020Z,101213.34
2023-02-15T23:50:46.242Z,101216.06
2023-02-15T23:55:49.711Z,101204.16
